Logan Cache Airport
KLGU : now visible

Airfield :











YOU CAN JOIN US ON...

 
LOGIN :

Register | Disclaimer

   EN    FR    IT 

 









Legend :    VFR   Marginal VFR   IFR   Intensive IFR   Very Intensive IFR
Visi :
Ceiling :
>= 8 km
>= 3000ft
5 to 8 km
1000 to 3000 ft
1500m to 5 km
500 to 1000 ft
800 to 1500m
200 to 500 ft
< 800m
< 200 ft
Symbols :   Thunderstorms  Fog  Heavy snow  Heavy precipitations  Wind > 20 kt






- Airport Elevation : 4457 ft


KLGU - Logan Cache

CURRENT METAR :
  • 291251Z AUTO 10003KT 3SM HZ FEW005 BKN033 OVC060 03/M01 A3016 RMK AO2 SLP215 T00281006

EXPIRED METARs :
  • 291226Z AUTO 35003KT 3SM HZ SCT007 OVC060 03/M01 A3015 RMK AO2 T00281006
  • 291151Z AUTO 02005KT 3SM HZ OVC006 03/M01 A3014 RMK AO2 CIG 004V008 SLP210 60000 70002 T00281006 10044 20022 53006
  • 291119Z AUTO 30006KT 2SM HZ BKN006 BKN010 OVC050 02/M01 A3013 RMK AO2 T00221011
  • 291113Z AUTO 31003KT 2 1/2SM HZ BKN009 OVC050 02/M01 A3013 RMK AO2 CIG 005V010 T00221011
  • 291104Z AUTO 35003KT 2 1/2SM HZ FEW005 SCT009 OVC050 03/M01 A3013 RMK AO2 T00281006

TAF KLGU
Valid from the 29 at 13:00 until the 30 at 12:00 UTC


291250Z 2913/3012 VRB03KT 3SM HZ VCSH FEW007 BKN060
FM291800 34004KT 4SM BR SCT010 BKN025
FM292100 34004KT 5SM BR SCT025 BKN035
FM300700 VRB04KT 5SM BR VCSH SCT010 BKN020



MET'MAP, your aeronautical weather chart ! - Copyright ORBIFLY December 2007 - Disclaimer

ORBIFLY MET'MAP TEAM :

Programming & Development : Alexandra Zaïnal
Concept & original design : Baudouin d'Aumeries
Assistance for programming : Marc-Olivier Méhu
Technical & hardware support : Manuel Goepfert

Contact : metmap@orbifly.com




SOURCES & CREDITS :

   NOAA       Earth
Advisory